Time;durP1;ratioP1;P1;durP2;ratioP2;P2;SDS_P1;SDS_P2;PMS_P1;PMS_P2;Temp;Humidity;BMP_temperature;BMP_pressure;BME280_temperature;BME280_humidity;BME280_pressure;Samples;Min_cycle;Max_cycle;Signal;HPM_P1;HPM_P2
2023/03/15 00:00:54;;;;;;;0.17;0.17;;;1.90;99.90;;;;;;5054876;28;20439;-74
2023/03/15 00:03:20;;;;;;;0.20;0.20;;;1.90;99.90;;;;;;5054923;28;20017;-74
2023/03/15 00:05:48;;;;;;;0.20;0.20;;;1.90;99.90;;;;;;5037213;28;20434;-74
2023/03/15 00:08:14;;;;;;;0.30;0.30;;;1.80;99.90;;;;;;5036804;28;20513;-74
2023/03/15 00:10:44;;;;;;;0.20;0.20;;;1.80;99.90;;;;;;5054707;28;20490;-74
2023/03/15 00:13:10;;;;;;;0.20;0.20;;;1.80;99.90;;;;;;5054616;28;20021;-74
2023/03/15 00:15:43;;;;;;;0.20;0.20;;;1.80;99.90;;;;;;5054673;28;20025;-74
2023/03/15 00:18:08;;;;;;;0.20;0.20;;;1.80;99.90;;;;;;5054844;28;20108;-74
2023/03/15 00:20:36;;;;;;;0.20;0.20;;;1.80;99.90;;;;;;5054470;28;20105;-74
2023/03/15 00:23:02;;;;;;;0.20;0.20;;;1.70;99.90;;;;;;5054671;28;20033;-74
2023/03/15 00:25:28;;;;;;;0.20;0.20;;;1.60;99.90;;;;;;5054311;28;20033;-74
2023/03/15 00:27:53;;;;;;;0.10;0.10;;;1.60;99.90;;;;;;5054342;28;20037;-74
2023/03/15 00:30:19;;;;;;;0.10;0.10;;;1.60;99.90;;;;;;5054303;28;20107;-74
2023/03/15 00:32:44;;;;;;;0.20;0.20;;;1.60;99.90;;;;;;5054247;28;20035;-74
2023/03/15 00:35:11;;;;;;;0.20;0.20;;;1.60;99.90;;;;;;5054333;28;20036;-74
2023/03/15 00:37:37;;;;;;;0.30;0.30;;;1.60;99.90;;;;;;5054167;28;20021;-74
2023/03/15 00:40:05;;;;;;;0.20;0.20;;;1.60;99.90;;;;;;5054129;28;20458;-74
2023/03/15 00:42:32;;;;;;;0.20;0.20;;;1.60;99.90;;;;;;5053695;28;20022;-74
2023/03/15 00:44:58;;;;;;;0.20;0.20;;;1.70;99.90;;;;;;5054216;28;20021;-73
2023/03/15 00:47:24;;;;;;;0.20;0.20;;;1.60;99.90;;;;;;5053976;28;20021;-73
2023/03/15 00:49:50;;;;;;;0.20;0.20;;;1.50;99.90;;;;;;5054036;28;20386;-73
2023/03/15 00:52:17;;;;;;;0.22;0.22;;;1.40;99.90;;;;;;5053876;28;20100;-73
2023/03/15 00:54:43;;;;;;;0.20;0.20;;;1.30;99.90;;;;;;5054037;28;20028;-73
2023/03/15 00:57:09;;;;;;;0.20;0.20;;;1.20;99.90;;;;;;5053727;28;20158;-73
2023/03/15 00:59:34;;;;;;;0.20;0.20;;;1.20;99.90;;;;;;5035845;28;20025;-73
2023/03/15 01:02:01;;;;;;;0.28;0.28;;;1.10;99.90;;;;;;5035892;28;20060;-73
2023/03/15 01:04:26;;;;;;;0.20;0.20;;;1.00;99.90;;;;;;5053366;28;20095;-73
2023/03/15 01:06:52;;;;;;;0.20;0.20;;;1.00;99.90;;;;;;5053607;28;20029;-73
2023/03/15 01:09:17;;;;;;;0.20;0.20;;;1.00;99.90;;;;;;5053565;28;20033;-73
2023/03/15 01:11:43;;;;;;;0.20;0.20;;;1.00;99.90;;;;;;5053550;28;20107;-73
2023/03/15 01:14:09;;;;;;;0.20;0.20;;;1.00;99.90;;;;;;5035556;28;20036;-73
2023/03/15 01:16:34;;;;;;;0.25;0.25;;;1.00;99.90;;;;;;5053392;28;20032;-73
2023/03/15 01:19:00;;;;;;;0.20;0.20;;;0.90;99.90;;;;;;5053398;28;20029;-72
2023/03/15 01:21:25;;;;;;;0.20;0.20;;;0.90;99.90;;;;;;5053383;28;20029;-72
2023/03/15 01:23:52;;;;;;;0.20;0.20;;;0.90;99.90;;;;;;5053551;28;20151;-72
2023/03/15 01:26:18;;;;;;;0.20;0.20;;;0.80;99.90;;;;;;5053290;28;20029;-72
2023/03/15 01:28:44;;;;;;;0.20;0.20;;;0.70;99.90;;;;;;5053265;28;20028;-72
2023/03/15 01:31:29;;;;;;;0.20;0.20;;;0.70;99.90;;;;;;5053238;28;20021;-72
2023/03/15 01:33:56;;;;;;;0.20;0.20;;;0.70;99.90;;;;;;5053378;28;20029;-72
2023/03/15 01:36:22;;;;;;;0.20;0.20;;;0.60;99.90;;;;;;5053366;28;20095;-72
2023/03/15 01:38:51;;;;;;;0.20;0.20;;;0.60;99.90;;;;;;5053152;28;20086;-72
2023/03/15 01:41:17;;;;;;;0.20;0.20;;;0.60;99.90;;;;;;5035266;28;20021;-72
2023/03/15 01:43:46;;;;;;;0.30;0.30;;;0.60;99.90;;;;;;5053294;28;20386;-72
2023/03/15 01:46:27;;;;;;;0.10;0.10;;;0.50;99.90;;;;;;5053342;28;20081;-72
2023/03/15 01:49:12;;;;;;;0.30;0.30;;;0.50;99.90;;;;;;5053340;28;20100;-73
2023/03/15 01:51:49;;;;;;;0.20;0.20;;;0.50;99.90;;;;;;5053014;28;20397;-73
2023/03/15 01:54:29;;;;;;;0.10;0.10;;;0.50;99.90;;;;;;5052252;28;20025;-73
2023/03/15 01:57:04;;;;;;;0.15;0.15;;;0.40;99.90;;;;;;5053205;28;20479;-73
2023/03/15 01:59:33;;;;;;;0.20;0.20;;;0.40;99.90;;;;;;5053408;28;20040;-73
2023/03/15 02:02:00;;;;;;;0.10;0.10;;;0.40;99.90;;;;;;5053371;28;20386;-73
2023/03/15 02:04:59;;;;;;;0.20;0.20;;;0.30;99.90;;;;;;5052844;28;20033;-73
2023/03/15 02:07:28;;;;;;;0.20;0.20;;;0.10;99.90;;;;;;5053170;28;20024;-73
2023/03/15 02:10:04;;;;;;;0.20;0.20;;;0.10;99.90;;;;;;5053405;28;20021;-73
2023/03/15 02:12:33;;;;;;;0.20;0.20;;;0.00;99.90;;;;;;5053134;28;20435;-73
2023/03/15 02:15:02;;;;;;;0.20;0.20;;;-0.10;99.90;;;;;;5052772;28;20021;-73
2023/03/15 02:17:37;;;;;;;0.30;0.30;;;-0.10;99.90;;;;;;5052928;28;20017;-73
2023/03/15 02:20:14;;;;;;;0.20;0.20;;;-0.10;99.90;;;;;;5053083;28;20479;-73
2023/03/15 02:22:54;;;;;;;0.17;0.17;;;-0.20;99.90;;;;;;5053045;28;20060;-73
2023/03/15 02:25:36;;;;;;;0.20;0.20;;;-0.10;99.90;;;;;;5052709;28;20021;-73
2023/03/15 02:28:04;;;;;;;0.10;0.10;;;-0.10;99.90;;;;;;5052676;28;20025;-73
2023/03/15 02:30:30;;;;;;;0.10;0.10;;;-0.10;99.90;;;;;;5052625;28;20501;-73
2023/03/15 02:32:58;;;;;;;0.20;0.20;;;-0.20;99.90;;;;;;5052632;28;20025;-73
2023/03/15 02:35:30;;;;;;;0.10;0.10;;;-0.30;99.90;;;;;;5052481;28;20090;-73
2023/03/15 02:37:56;;;;;;;0.15;0.15;;;-0.30;99.90;;;;;;5052585;28;20021;-73
2023/03/15 02:40:26;;;;;;;0.20;0.20;;;-0.40;99.90;;;;;;5052530;28;20025;-73
2023/03/15 02:42:59;;;;;;;0.20;0.20;;;-0.40;99.90;;;;;;5034691;28;20082;-73
2023/03/15 02:45:25;;;;;;;0.22;0.22;;;-0.50;99.90;;;;;;5034703;28;20021;-73
2023/03/15 02:47:52;;;;;;;0.20;0.20;;;-0.50;99.90;;;;;;5052758;28;20039;-73
2023/03/15 02:50:18;;;;;;;0.20;0.20;;;-0.50;99.90;;;;;;5034558;28;20486;-73
2023/03/15 02:52:43;;;;;;;0.10;0.10;;;-0.60;99.90;;;;;;5052360;28;20121;-73
2023/03/15 02:55:09;;;;;;;0.20;0.20;;;-0.60;99.90;;;;;;5052385;28;20056;-73
2023/03/15 02:57:36;;;;;;;0.20;0.20;;;-0.60;99.90;;;;;;5034556;28;20029;-73
2023/03/15 03:00:12;;;;;;;0.20;0.20;;;-0.60;99.90;;;;;;5034826;28;20048;-73
2023/03/15 03:02:43;;;;;;;0.20;0.20;;;-0.70;99.90;;;;;;5035370;28;20025;-73
2023/03/15 03:05:13;;;;;;;0.20;0.20;;;-0.80;99.90;;;;;;5053738;28;20029;-73
2023/03/15 03:07:38;;;;;;;0.22;0.22;;;-0.80;99.90;;;;;;5056131;28;20017;-73
2023/03/15 03:10:05;;;;;;;0.20;0.20;;;-0.80;99.90;;;;;;5055799;28;20075;-73
2023/03/15 03:12:32;;;;;;;0.20;0.20;;;-0.80;99.90;;;;;;5055762;28;20406;-73
2023/03/15 03:14:57;;;;;;;0.20;0.20;;;-0.80;99.90;;;;;;5056171;28;20031;-73
2023/03/15 03:17:23;;;;;;;0.20;0.20;;;-0.80;99.90;;;;;;5037854;28;20104;-73
2023/03/15 03:19:50;;;;;;;0.20;0.20;;;-0.70;99.90;;;;;;5056217;28;20021;-73
2023/03/15 03:22:16;;;;;;;0.20;0.20;;;-0.80;99.90;;;;;;5055590;28;20021;-73
2023/03/15 03:24:44;;;;;;;0.30;0.30;;;-0.60;99.90;;;;;;5055516;28;20445;-73
2023/03/15 03:27:16;;;;;;;0.20;0.20;;;-0.70;99.90;;;;;;5055775;28;20017;-73
2023/03/15 03:29:42;;;;;;;0.20;0.20;;;-0.60;99.90;;;;;;5056041;28;20078;-73
2023/03/15 03:32:08;;;;;;;0.10;0.10;;;-0.70;99.90;;;;;;5055697;28;20033;-73
2023/03/15 03:34:34;;;;;;;0.20;0.20;;;-0.70;99.90;;;;;;5037372;28;20387;-73
2023/03/15 03:37:00;;;;;;;0.20;0.20;;;-0.70;99.90;;;;;;5055256;28;20036;-74
2023/03/15 03:39:26;;;;;;;0.20;0.20;;;-0.70;99.90;;;;;;5055309;28;20490;-73
2023/03/15 03:41:51;;;;;;;0.15;0.15;;;-0.60;99.90;;;;;;5055481;28;20092;-73
2023/03/15 03:44:17;;;;;;;0.20;0.20;;;-0.50;99.90;;;;;;5055134;28;20021;-73
2023/03/15 03:46:43;;;;;;;0.20;0.20;;;-0.50;99.90;;;;;;5055162;28;20029;-73
2023/03/15 03:49:08;;;;;;;0.20;0.20;;;-0.50;99.90;;;;;;5055402;28;20031;-73
2023/03/15 03:51:35;;;;;;;0.20;0.20;;;-0.50;99.90;;;;;;5055034;28;20032;-73
2023/03/15 03:54:01;;;;;;;0.20;0.20;;;-0.60;99.90;;;;;;5055246;28;20020;-73
2023/03/15 03:56:26;;;;;;;0.20;0.20;;;-0.60;99.90;;;;;;5055441;28;20047;-73
2023/03/15 03:58:52;;;;;;;0.20;0.20;;;-0.50;99.90;;;;;;5054931;28;20108;-73
2023/03/15 04:01:18;;;;;;;0.13;0.13;;;-0.40;99.90;;;;;;5054867;28;20100;-74
2023/03/15 04:03:43;;;;;;;0.20;0.20;;;-0.40;99.90;;;;;;5054624;28;20040;-73
2023/03/15 04:06:09;;;;;;;0.10;0.10;;;-0.30;99.90;;;;;;5054843;28;20490;-73
2023/03/15 04:08:34;;;;;;;0.20;0.20;;;-0.20;99.90;;;;;;5036885;28;20029;-74
2023/03/15 04:11:02;;;;;;;0.10;0.10;;;-0.20;99.90;;;;;;5036877;28;20398;-74
2023/03/15 04:13:28;;;;;;;0.20;0.20;;;-0.20;99.90;;;;;;5054540;28;20025;-73
2023/03/15 04:15:56;;;;;;;0.20;0.20;;;-0.20;99.90;;;;;;5054291;28;20402;-73
2023/03/15 04:18:22;;;;;;;0.15;0.15;;;-0.30;99.90;;;;;;5054197;28;20175;-73
2023/03/15 04:20:48;;;;;;;0.20;0.20;;;-0.40;99.90;;;;;;5054525;28;20023;-73
2023/03/15 04:23:18;;;;;;;0.30;0.30;;;-0.40;99.90;;;;;;5054387;28;20108;-73
2023/03/15 04:25:50;;;;;;;0.10;0.10;;;-0.50;99.90;;;;;;5054428;28;20032;-73
2023/03/15 04:28:17;;;;;;;0.20;0.20;;;-0.60;99.90;;;;;;5054433;28;20493;-73
2023/03/15 04:30:44;;;;;;;0.10;0.10;;;-0.60;99.90;;;;;;5054296;28;20029;-73
2023/03/15 04:33:10;;;;;;;0.20;0.20;;;-0.60;99.90;;;;;;5054282;28;20107;-73
2023/03/15 04:35:37;;;;;;;0.13;0.13;;;-0.60;99.90;;;;;;5054047;28;20105;-73
2023/03/15 04:38:04;;;;;;;0.20;0.20;;;-0.60;99.90;;;;;;5054162;28;20028;-73
2023/03/15 04:40:33;;;;;;;0.10;0.10;;;-0.50;99.90;;;;;;5054141;28;20071;-73
2023/03/15 04:43:00;;;;;;;0.10;0.10;;;-0.40;99.90;;;;;;5054048;28;20552;-73
2023/03/15 04:45:27;;;;;;;0.17;0.17;;;-0.40;99.90;;;;;;5053920;28;20028;-73
2023/03/15 04:47:54;;;;;;;0.20;0.20;;;-0.20;99.90;;;;;;5054544;28;20441;-73
2023/03/15 04:50:21;;;;;;;0.20;0.20;;;-0.10;99.90;;;;;;5054189;28;20062;-73
2023/03/15 04:52:47;;;;;;;0.20;0.20;;;0.20;99.90;;;;;;5054094;28;20029;-73
2023/03/15 04:55:13;;;;;;;0.10;0.10;;;0.40;99.90;;;;;;5053693;28;20033;-73
2023/03/15 04:57:40;;;;;;;0.20;0.20;;;0.40;99.90;;;;;;5053784;28;20060;-73
2023/03/15 05:00:10;;;;;;;0.20;0.20;;;0.50;99.90;;;;;;5053748;28;20036;-73
2023/03/15 05:02:38;;;;;;;0.10;0.10;;;0.50;99.90;;;;;;5054012;28;20036;-73
2023/03/15 05:05:08;;;;;;;0.20;0.20;;;0.40;99.90;;;;;;5053511;28;20021;-73
2023/03/15 05:07:34;;;;;;;0.28;0.28;;;0.30;99.90;;;;;;5054168;28;20025;-73
2023/03/15 05:10:00;;;;;;;0.20;0.20;;;0.30;99.90;;;;;;5053569;28;20036;-73
2023/03/15 05:12:26;;;;;;;0.20;0.20;;;0.20;99.90;;;;;;5053548;28;20052;-73
2023/03/15 05:14:52;;;;;;;0.20;0.20;;;0.20;99.90;;;;;;5053463;28;20115;-73
2023/03/15 05:17:17;;;;;;;0.20;0.20;;;0.10;99.90;;;;;;5053653;28;20541;-73
2023/03/15 05:19:43;;;;;;;0.28;0.28;;;0.10;99.90;;;;;;5053424;28;20364;-73
2023/03/15 05:22:08;;;;;;;0.20;0.20;;;0.00;99.90;;;;;;5053686;28;20474;-73
2023/03/15 05:24:34;;;;;;;0.20;0.20;;;0.00;99.90;;;;;;5053301;28;20081;-73
2023/03/15 05:27:00;;;;;;;0.20;0.20;;;0.00;99.90;;;;;;5053834;28;20029;-73
2023/03/15 05:29:25;;;;;;;0.20;0.20;;;0.10;99.90;;;;;;5052676;28;20048;-73
2023/03/15 05:31:51;;;;;;;0.20;0.20;;;0.10;99.90;;;;;;5053551;28;20024;-73
2023/03/15 05:34:18;;;;;;;0.10;0.10;;;0.10;99.90;;;;;;5053158;28;20075;-73
2023/03/15 05:36:43;;;;;;;0.20;0.20;;;0.10;99.90;;;;;;5053122;28;20057;-73
2023/03/15 05:39:10;;;;;;;0.20;0.20;;;0.10;99.90;;;;;;5053196;28;20427;-74
2023/03/15 05:41:36;;;;;;;0.20;0.20;;;0.00;99.90;;;;;;5053134;28;20146;-73
2023/03/15 05:44:01;;;;;;;0.20;0.20;;;-0.20;99.90;;;;;;5053068;28;20107;-74
2023/03/15 05:46:27;;;;;;;0.15;0.15;;;-0.30;99.90;;;;;;5035201;28;20068;-73
2023/03/15 05:48:53;;;;;;;0.20;0.20;;;-0.30;99.90;;;;;;5053313;28;20029;-73
2023/03/15 05:51:19;;;;;;;0.10;0.10;;;-0.30;99.90;;;;;;5053561;28;20151;-74
2023/03/15 05:53:44;;;;;;;0.15;0.15;;;-0.40;99.90;;;;;;5053031;28;20028;-73
2023/03/15 05:56:10;;;;;;;0.10;0.10;;;-0.40;99.90;;;;;;5052903;28;20041;-73
2023/03/15 05:58:36;;;;;;;0.20;0.20;;;-0.50;99.90;;;;;;5052935;28;20029;-73
2023/03/15 06:01:03;;;;;;;0.10;0.10;;;-0.60;99.90;;;;;;5053195;28;20559;-73
2023/03/15 06:03:30;;;;;;;0.20;0.20;;;-0.60;99.90;;;;;;5052948;28;20112;-74
2023/03/15 06:05:56;;;;;;;0.30;0.30;;;-0.60;99.90;;;;;;5053206;28;20036;-74
2023/03/15 06:08:22;;;;;;;0.17;0.17;;;-0.50;99.90;;;;;;5053149;28;20060;-74
2023/03/15 06:10:47;;;;;;;0.13;0.13;;;-0.40;99.90;;;;;;5052850;28;20067;-74
2023/03/15 06:13:13;;;;;;;0.20;0.20;;;-0.20;99.90;;;;;;5052818;28;20032;-73
2023/03/15 06:15:38;;;;;;;0.10;0.10;;;-0.10;99.90;;;;;;5052948;28;20029;-73
2023/03/15 06:18:04;;;;;;;0.20;0.20;;;0.10;99.90;;;;;;5053057;28;20075;-74
2023/03/15 06:20:30;;;;;;;0.20;0.20;;;0.10;99.90;;;;;;5052779;28;20371;-73
2023/03/15 06:22:56;;;;;;;0.10;0.10;;;0.30;99.90;;;;;;5052734;28;20108;-74
2023/03/15 06:25:22;;;;;;;0.20;0.20;;;0.30;99.90;;;;;;5052647;28;20435;-73
2023/03/15 06:27:48;;;;;;;0.10;0.10;;;0.30;99.90;;;;;;5052682;28;20025;-74
2023/03/15 06:30:14;;;;;;;0.20;0.20;;;0.30;99.90;;;;;;5052658;28;20407;-74
2023/03/15 06:32:39;;;;;;;0.20;0.20;;;0.40;99.90;;;;;;5052889;28;20040;-73
2023/03/15 06:35:05;;;;;;;0.20;0.20;;;0.50;99.90;;;;;;5052450;28;20028;-73
2023/03/15 06:37:31;;;;;;;0.20;0.20;;;0.50;99.90;;;;;;5052612;28;20514;-74
2023/03/15 06:39:57;;;;;;;0.10;0.10;;;0.50;99.90;;;;;;5053680;28;20021;-74
2023/03/15 06:42:22;;;;;;;0.17;0.17;;;0.60;99.90;;;;;;5056404;28;20021;-73
2023/03/15 06:44:48;;;;;;;0.20;0.20;;;0.70;99.90;;;;;;5056251;28;20142;-73
2023/03/15 06:47:13;;;;;;;0.20;0.20;;;0.70;99.90;;;;;;5056292;28;20482;-73
2023/03/15 06:49:39;;;;;;;0.20;0.20;;;0.80;99.90;;;;;;5056487;28;20029;-73
2023/03/15 06:52:05;;;;;;;0.20;0.20;;;0.90;99.90;;;;;;5056492;28;20402;-73
2023/03/15 06:54:31;;;;;;;0.10;0.10;;;1.00;99.90;;;;;;5056099;28;20067;-73
2023/03/15 06:56:57;;;;;;;0.20;0.20;;;1.20;99.90;;;;;;5056323;28;20060;-73
2023/03/15 06:59:23;;;;;;;0.20;0.20;;;1.40;99.90;;;;;;5056088;28;20049;-73
2023/03/15 07:01:48;;;;;;;0.20;0.20;;;1.70;99.90;;;;;;5056028;28;20391;-73
2023/03/15 07:04:14;;;;;;;0.17;0.17;;;2.00;99.90;;;;;;5055703;28;20075;-72
2023/03/15 07:06:40;;;;;;;0.17;0.17;;;2.40;99.90;;;;;;5056195;28;20033;-73
2023/03/15 07:09:06;;;;;;;0.30;0.30;;;2.40;99.90;;;;;;5055897;28;20082;-72
2023/03/15 07:11:32;;;;;;;0.20;0.20;;;2.00;99.90;;;;;;5056123;28;20025;-71
2023/03/15 07:13:57;;;;;;;0.20;0.20;;;1.60;99.90;;;;;;5055733;28;20483;-71
2023/03/15 07:16:24;;;;;;;0.20;0.20;;;1.30;99.90;;;;;;5055957;28;20413;-71
2023/03/15 07:18:49;;;;;;;0.20;0.20;;;1.10;99.90;;;;;;5055751;28;20029;-71
2023/03/15 07:21:15;;;;;;;0.20;0.20;;;1.00;99.90;;;;;;5055957;28;20382;-71
2023/03/15 07:23:41;;;;;;;0.20;0.20;;;0.90;99.90;;;;;;5055829;28;20067;-71
2023/03/15 07:26:06;;;;;;;0.20;0.20;;;0.80;99.90;;;;;;5037716;28;20162;-71
2023/03/15 07:28:32;;;;;;;0.10;0.10;;;0.80;99.90;;;;;;5056088;28;20032;-71
2023/03/15 07:31:00;;;;;;;0.20;0.20;;;0.80;99.90;;;;;;5055773;28;20033;-71
2023/03/15 07:33:27;;;;;;;0.20;0.20;;;0.80;99.90;;;;;;5055512;28;20056;-71
2023/03/15 07:35:54;;;;;;;0.20;0.20;;;0.90;99.90;;;;;;5055330;28;20056;-70
2023/03/15 07:38:24;;;;;;;0.13;0.13;;;1.00;99.90;;;;;;5037484;28;20063;-70
2023/03/15 07:40:50;;;;;;;0.30;0.30;;;1.20;99.90;;;;;;5055328;28;20045;-70
2023/03/15 07:43:16;;;;;;;0.15;0.15;;;1.20;99.90;;;;;;5055182;28;20490;-70
2023/03/15 07:45:42;;;;;;;0.17;0.17;;;1.40;99.90;;;;;;5055779;28;20078;-70
2023/03/15 07:48:07;;;;;;;0.10;0.10;;;1.50;99.90;;;;;;5055441;28;20067;-70
2023/03/15 07:50:33;;;;;;;0.13;0.13;;;1.60;99.90;;;;;;5054977;28;20021;-70
2023/03/15 07:52:59;;;;;;;0.20;0.20;;;1.80;99.90;;;;;;5054186;28;20079;-70
2023/03/15 07:55:24;;;;;;;0.10;0.10;;;1.90;99.90;;;;;;5054878;28;20025;-70
2023/03/15 07:57:50;;;;;;;0.10;0.10;;;2.10;99.90;;;;;;5054967;28;20048;-70
2023/03/15 08:00:17;;;;;;;0.10;0.10;;;2.20;99.90;;;;;;5055224;28;20056;-70
2023/03/15 08:02:42;;;;;;;0.10;0.10;;;2.20;99.90;;;;;;5055161;28;20032;-70
2023/03/15 08:05:09;;;;;;;0.20;0.20;;;2.30;99.90;;;;;;5055133;28;20033;-70
2023/03/15 08:07:35;;;;;;;0.20;0.20;;;2.30;99.90;;;;;;5055023;28;20028;-70
2023/03/15 08:10:02;;;;;;;0.20;0.20;;;2.40;99.90;;;;;;5055042;28;20044;-70
2023/03/15 08:12:28;;;;;;;0.20;0.20;;;2.50;99.90;;;;;;5054682;28;20070;-70
2023/03/15 08:14:54;;;;;;;0.20;0.20;;;2.60;99.90;;;;;;5054528;28;20543;-70
2023/03/15 08:17:20;;;;;;;0.20;0.20;;;2.80;99.90;;;;;;5036662;28;20033;-70
2023/03/15 08:19:45;;;;;;;0.10;0.10;;;2.80;99.90;;;;;;5054839;28;20048;-70
2023/03/15 08:22:11;;;;;;;0.13;0.13;;;2.70;99.90;;;;;;5054456;28;20068;-70
2023/03/15 08:24:36;;;;;;;0.10;0.10;;;2.80;99.90;;;;;;5054343;28;20044;-70
2023/03/15 08:27:03;;;;;;;0.20;0.20;;;3.00;99.90;;;;;;5054422;28;20033;-70
2023/03/15 08:29:29;;;;;;;0.10;0.10;;;3.20;99.90;;;;;;5054655;28;20025;-70
2023/03/15 08:31:55;;;;;;;0.20;0.20;;;3.30;99.90;;;;;;5054514;28;20505;-70
2023/03/15 08:34:21;;;;;;;0.20;0.20;;;3.40;99.90;;;;;;5054221;28;20051;-70
2023/03/15 08:36:47;;;;;;;0.20;0.20;;;3.60;99.90;;;;;;5054443;28;20521;-70
2023/03/15 08:39:13;;;;;;;0.20;0.20;;;3.80;99.90;;;;;;5054714;28;20425;-71
2023/03/15 08:41:39;;;;;;;0.20;0.20;;;3.60;99.90;;;;;;5054380;28;20067;-70
2023/03/15 08:44:05;;;;;;;0.10;0.10;;;3.40;99.90;;;;;;5054072;28;20486;-70
2023/03/15 08:46:32;;;;;;;0.20;0.20;;;3.00;99.90;;;;;;5054021;28;20036;-70
2023/03/15 08:48:57;;;;;;;0.20;0.20;;;2.50;99.90;;;;;;5054221;28;20056;-70
2023/03/15 08:51:25;;;;;;;0.15;0.15;;;2.20;99.90;;;;;;5053966;28;20053;-70
2023/03/15 08:53:51;;;;;;;0.10;0.10;;;2.00;99.90;;;;;;5019728;28;20025;-70
2023/03/15 08:56:17;;;;;;;0.10;0.10;;;1.90;99.90;;;;;;5053769;28;20421;-70
2023/03/15 08:58:42;;;;;;;0.20;0.20;;;2.10;99.90;;;;;;5053971;28;20070;-70
2023/03/15 09:01:11;;;;;;;0.10;0.10;;;2.30;99.90;;;;;;5053805;28;20390;-70
2023/03/15 09:03:36;;;;;;;0.20;0.20;;;2.60;99.90;;;;;;5053757;28;20021;-70
2023/03/15 09:06:02;;;;;;;0.20;0.20;;;2.80;99.90;;;;;;5054247;28;20155;-70
2023/03/15 09:08:27;;;;;;;0.10;0.10;;;3.00;99.90;;;;;;5053671;28;20029;-70
2023/03/15 09:10:56;;;;;;;0.10;0.10;;;3.20;99.90;;;;;;5053621;28;20028;-70
2023/03/15 09:13:23;;;;;;;0.20;0.20;;;3.30;99.90;;;;;;5053519;28;20025;-70
2023/03/15 09:15:53;;;;;;;0.10;0.10;;;3.50;99.90;;;;;;5053618;28;20025;-70
2023/03/15 09:18:19;;;;;;;0.20;0.20;;;3.90;99.90;;;;;;5053363;28;20043;-70
2023/03/15 09:20:45;;;;;;;0.20;0.20;;;4.20;99.90;;;;;;5053475;28;20079;-70
2023/03/15 09:23:11;;;;;;;0.20;0.20;;;4.10;99.90;;;;;;5053402;28;20020;-70
2023/03/15 09:25:37;;;;;;;0.10;0.10;;;4.00;99.90;;;;;;5053314;28;20059;-71
2023/03/15 09:28:04;;;;;;;0.20;0.20;;;3.90;99.90;;;;;;5053614;28;20548;-70
2023/03/15 09:30:30;;;;;;;0.20;0.20;;;3.80;99.90;;;;;;5053573;28;20041;-70
2023/03/15 09:32:55;;;;;;;0.20;0.20;;;4.00;99.90;;;;;;5053516;28;20074;-70
2023/03/15 09:35:21;;;;;;;0.20;0.20;;;4.20;99.90;;;;;;5053102;28;20441;-70
2023/03/15 09:37:48;;;;;;;0.20;0.20;;;4.40;99.90;;;;;;5053203;28;20025;-71
2023/03/15 09:40:38;;;;;;;0.20;0.20;;;4.60;99.90;;;;;;5053152;28;20052;-71
2023/03/15 09:43:07;;;;;;;0.20;0.20;;;4.70;99.90;;;;;;5053428;28;20048;-71
2023/03/15 09:45:57;;;;;;;0.20;0.20;;;4.90;99.90;;;;;;5053028;28;20028;-71
2023/03/15 09:48:54;;;;;;;0.20;0.20;;;5.10;99.90;;;;;;5053311;28;20028;-70
2023/03/15 09:51:35;;;;;;;0.15;0.15;;;5.60;99.90;;;;;;5053049;28;20074;-71
2023/03/15 09:54:09;;;;;;;0.22;0.22;;;5.60;99.90;;;;;;5053179;28;20025;-71
2023/03/15 09:57:00;;;;;;;0.20;0.20;;;5.60;99.90;;;;;;5053223;28;20032;-71
2023/03/15 09:59:33;;;;;;;0.10;0.10;;;5.20;99.90;;;;;;5025943;28;20524;-71
2023/03/15 10:02:03;;;;;;;0.15;0.15;;;4.60;99.90;;;;;;5053249;28;20055;-70
2023/03/15 10:04:36;;;;;;;0.20;0.20;;;3.80;99.90;;;;;;5066861;23;20175;-72
2023/03/15 10:07:02;;;;;;;0.20;0.20;;;3.00;99.90;;;;;;5052954;28;20039;-73
2023/03/15 10:09:34;;;;;;;0.13;0.13;;;2.50;99.90;;;;;;5053141;28;20035;-72
2023/03/15 10:12:14;;;;;;;0.10;0.10;;;2.20;99.90;;;;;;5053149;28;20039;-72
2023/03/15 10:15:14;;;;;;;0.20;0.20;;;2.20;99.90;;;;;;5035568;28;20032;-72
2023/03/15 10:17:48;;;;;;;0.10;0.10;;;2.50;99.90;;;;;;5057253;28;20032;-73
2023/03/15 10:20:33;;;;;;;0.10;0.10;;;2.90;99.90;;;;;;5056836;28;20055;-73
2023/03/15 10:23:21;;;;;;;0.10;0.10;;;3.40;99.90;;;;;;5057110;28;20021;-73
2023/03/15 10:25:49;;;;;;;0.20;0.20;;;3.70;99.90;;;;;;5041729;28;20025;-72
2023/03/15 10:28:27;;;;;;;0.20;0.20;;;3.90;99.90;;;;;;5062785;28;20033;-72
2023/03/15 10:30:56;;;;;;;0.20;0.20;;;4.10;99.90;;;;;;5062944;28;20099;-73
2023/03/15 10:33:27;;;;;;;0.20;0.20;;;4.20;99.90;;;;;;5061974;28;20542;-73
2023/03/15 10:35:53;;;;;;;0.20;0.20;;;4.60;99.90;;;;;;5038542;28;20486;-73
2023/03/15 10:38:21;;;;;;;0.20;0.20;;;4.70;99.90;;;;;;5038640;28;20025;-73
2023/03/15 10:40:50;;;;;;;0.20;0.20;;;4.80;99.90;;;;;;5056384;28;20111;-73
2023/03/15 10:43:35;;;;;;;0.20;0.20;;;4.90;99.90;;;;;;5056713;28;20471;-74
2023/03/15 10:46:03;;;;;;;0.20;0.20;;;5.00;99.90;;;;;;5056324;28;20032;-73
2023/03/15 10:48:31;;;;;;;0.20;0.20;;;5.00;99.90;;;;;;5056596;28;20032;-74
2023/03/15 10:51:02;;;;;;;0.10;0.10;;;5.30;99.90;;;;;;5056501;28;20121;-74
2023/03/15 10:53:27;;;;;;;0.20;0.20;;;5.70;99.90;;;;;;5056542;28;20028;-74
2023/03/15 10:56:00;;;;;;;0.20;0.20;;;5.60;99.90;;;;;;5038158;28;20029;-74
2023/03/15 10:58:30;;;;;;;0.20;0.20;;;5.70;99.90;;;;;;5056167;28;20508;-74
2023/03/15 11:01:08;;;;;;;0.20;0.20;;;5.80;99.90;;;;;;5056518;28;20423;-74
2023/03/15 11:03:35;;;;;;;0.20;0.20;;;6.00;99.90;;;;;;5038153;28;20028;-74
2023/03/15 11:06:01;;;;;;;0.20;0.20;;;6.10;99.90;;;;;;5055906;28;20035;-74
2023/03/15 11:08:41;;;;;;;0.30;0.30;;;6.30;99.90;;;;;;5056281;28;20480;-74
2023/03/15 11:11:07;;;;;;;0.20;0.20;;;6.40;99.90;;;;;;5055895;28;20025;-74
2023/03/15 11:13:35;;;;;;;0.20;0.20;;;6.40;99.90;;;;;;5037958;28;20107;-74
2023/03/15 11:16:04;;;;;;;0.13;0.13;;;6.60;99.90;;;;;;5055763;28;20075;-74
2023/03/15 11:18:34;;;;;;;0.20;0.20;;;6.50;99.90;;;;;;5037833;28;20021;-74
2023/03/15 11:21:04;;;;;;;0.20;0.20;;;6.30;99.90;;;;;;5056058;28;20029;-74
2023/03/15 11:23:35;;;;;;;0.20;0.20;;;6.30;99.90;;;;;;5055722;28;20028;-74
2023/03/15 11:26:02;;;;;;;0.20;0.20;;;6.40;99.90;;;;;;5037910;28;20382;-74
2023/03/15 11:28:31;;;;;;;0.20;0.20;;;6.50;99.90;;;;;;5037682;28;20098;-74
2023/03/15 11:30:59;;;;;;;0.30;0.30;;;5.70;99.90;;;;;;5055935;28;20036;-74
2023/03/15 11:33:44;;;;;;;0.20;0.20;;;4.00;99.90;;;;;;5037626;28;20115;-74
2023/03/15 11:36:18;;;;;;;0.20;0.20;;;3.20;99.90;;;;;;5055353;28;20025;-74
2023/03/15 11:38:44;;;;;;;0.20;0.20;;;3.00;99.90;;;;;;5055616;28;20032;-73
2023/03/15 11:41:22;;;;;;;0.20;0.20;;;2.90;99.90;;;;;;5055334;28;20517;-73
2023/03/15 11:44:23;;;;;;;0.17;0.17;;;2.90;99.90;;;;;;5055338;28;20394;-73
2023/03/15 11:47:08;;;;;;;0.20;0.20;;;2.90;99.90;;;;;;5055724;28;20386;-74
2023/03/15 11:49:47;;;;;;;0.17;0.17;;;3.00;99.90;;;;;;5055430;28;20047;-74
2023/03/15 11:52:15;;;;;;;0.20;0.20;;;3.00;99.90;;;;;;5055149;28;20040;-74
2023/03/15 11:54:43;;;;;;;0.20;0.20;;;3.40;99.90;;;;;;5055063;28;20508;-74
2023/03/15 11:57:35;;;;;;;0.10;0.10;;;4.10;99.90;;;;;;5055282;28;20028;-74
2023/03/15 12:00:33;;;;;;;0.20;0.20;;;5.00;99.90;;;;;;5049187;28;20561;-74
2023/03/15 12:03:23;;;;;;;0.10;0.10;;;5.70;99.90;;;;;;5055233;28;20474;-74
2023/03/15 12:06:07;;;;;;;0.17;0.17;;;6.10;99.90;;;;;;5036903;28;20033;-74
2023/03/15 12:08:34;;;;;;;;;;;6.50;99.90;;;;;;5037491;28;20041;-74
2023/03/15 12:11:00;;;;;;;0.20;0.20;;;7.00;99.90;;;;;;5054768;28;19905;-74
2023/03/15 12:13:28;;;;;;;0.20;0.20;;;7.10;99.90;;;;;;5054757;28;20104;-74
2023/03/15 12:15:55;;;;;;;0.20;0.20;;;7.30;99.90;;;;;;5036681;28;20024;-75
2023/03/15 12:18:26;;;;;;;0.20;0.20;;;7.30;99.90;;;;;;5054652;28;20029;-74
2023/03/15 12:21:08;;;;;;;0.20;0.20;;;7.60;99.90;;;;;;5055212;28;20032;-74
2023/03/15 12:23:45;;;;;;;0.20;0.20;;;7.70;99.90;;;;;;5036699;28;20119;-74
2023/03/15 12:26:31;;;;;;;0.20;0.20;;;8.00;99.90;;;;;;5054493;28;20029;-75
2023/03/15 12:28:59;;;;;;;0.20;0.20;;;8.10;99.90;;;;;;5036537;28;20486;-75
2023/03/15 12:31:41;;;;;;;0.20;0.20;;;7.80;99.90;;;;;;5036501;28;20033;-75
2023/03/15 12:34:14;;;;;;;0.20;0.20;;;8.00;99.90;;;;;;5054290;28;20017;-74
2023/03/15 12:36:47;;;;;;;0.20;0.20;;;7.90;99.90;;;;;;5054523;28;20502;-74
2023/03/15 12:39:15;;;;;;;0.28;0.28;;;7.70;99.90;;;;;;5035802;28;20035;-74
2023/03/15 12:41:47;;;;;;;0.20;0.20;;;7.60;99.90;;;;;;5054192;28;20029;-74
2023/03/15 12:44:31;;;;;;;0.20;0.20;;;8.30;99.90;;;;;;5054076;28;20025;-75
2023/03/15 12:47:02;;;;;;;0.30;0.30;;;8.90;99.90;;;;;;5054363;28;20024;-74
2023/03/15 12:49:38;;;;;;;0.20;0.20;;;8.80;99.90;;;;;;5054018;28;20025;-74
2023/03/15 12:52:11;;;;;;;0.20;0.20;;;8.10;99.90;;;;;;5053996;28;20025;-74
2023/03/15 12:55:12;;;;;;;0.20;0.20;;;7.90;99.90;;;;;;5036199;28;20029;-75
2023/03/15 12:57:46;;;;;;;0.28;0.28;;;7.60;99.90;;;;;;5036026;28;20029;-74
2023/03/15 13:00:21;;;;;;;0.20;0.20;;;7.40;99.90;;;;;;5054053;28;20021;-74
2023/03/15 13:03:04;;;;;;;0.20;0.20;;;7.60;99.90;;;;;;5036036;28;20028;-74
2023/03/15 13:05:42;;;;;;;0.13;0.13;;;8.10;99.90;;;;;;5035833;28;20064;-74